createdAt,value
2022-11-09T00:02:02.761Z,6.02
2022-11-09T00:05:06.059Z,6.11
2022-11-09T00:08:10.569Z,6.08
2022-11-09T00:11:13.457Z,6.08
2022-11-09T00:14:17.714Z,6.11
2022-11-09T00:17:20.402Z,6.10
2022-11-09T00:20:23.222Z,6.06
2022-11-09T00:23:25.886Z,6.00
2022-11-09T00:26:28.627Z,5.89
2022-11-09T00:29:31.398Z,5.81
2022-11-09T00:32:34.152Z,5.88
2022-11-09T00:35:38.862Z,5.79
2022-11-09T00:38:42.626Z,5.65
2022-11-09T00:41:45.270Z,5.54
2022-11-09T00:44:47.992Z,5.47
2022-11-09T00:47:50.690Z,5.45
2022-11-09T00:50:55.039Z,5.42
2022-11-09T00:53:58.636Z,5.33
2022-11-09T00:57:01.505Z,5.27
2022-11-09T01:00:05.802Z,5.11
2022-11-09T01:03:08.612Z,5.04
2022-11-09T01:06:25.605Z,5.09
2022-11-09T01:09:28.440Z,5.02
2022-11-09T01:12:31.255Z,4.96
2022-11-09T01:15:33.938Z,4.94
2022-11-09T01:18:39.985Z,4.98
2022-11-09T01:21:42.783Z,4.98
2022-11-09T01:24:46.174Z,4.97
2022-11-09T01:27:48.921Z,4.97
2022-11-09T01:30:51.666Z,5.03
2022-11-09T01:33:55.283Z,5.08
2022-11-09T01:36:58.187Z,5.04
2022-11-09T01:40:01.076Z,5.04
2022-11-09T01:43:23.559Z,5.09
2022-11-09T01:46:49.721Z,4.96
2022-11-09T01:50:00.327Z,4.96
2022-11-09T01:53:05.666Z,4.98
2022-11-09T01:56:11.580Z,4.92
2022-11-09T01:59:22.745Z,4.97
2022-11-09T02:02:26.078Z,4.97
2022-11-09T02:05:32.244Z,4.93
2022-11-09T02:08:35.096Z,4.95
2022-11-09T02:11:38.471Z,5.01
2022-11-09T02:14:41.827Z,5.02
2022-11-09T02:17:45.745Z,5.01
2022-11-09T02:20:51.705Z,5.01
2022-11-09T02:23:54.483Z,5.01
2022-11-09T02:26:59.442Z,5.01
2022-11-09T02:30:03.566Z,5.07
2022-11-09T02:33:06.583Z,4.86
2022-11-09T02:36:09.761Z,4.75
2022-11-09T02:39:15.379Z,4.61
2022-11-09T02:42:21.633Z,4.57
2022-11-09T02:45:27.409Z,4.54
2022-11-09T02:48:30.568Z,4.50
2022-11-09T02:51:33.970Z,4.46
2022-11-09T02:54:36.920Z,4.49
2022-11-09T02:57:41.087Z,4.55
2022-11-09T03:00:45.890Z,4.62
2022-11-09T03:03:49.819Z,4.66
2022-11-09T03:06:52.743Z,4.72
2022-11-09T03:09:55.925Z,4.74
2022-11-09T03:13:00.776Z,4.87
2022-11-09T03:16:05.677Z,5.01
2022-11-09T03:19:11.777Z,4.85
2022-11-09T03:22:14.981Z,4.78
2022-11-09T03:25:21.085Z,4.72
2022-11-09T03:28:25.008Z,4.70
2022-11-09T03:31:29.054Z,4.69
2022-11-09T03:34:33.309Z,4.68
2022-11-09T03:37:36.567Z,4.88
2022-11-09T03:40:40.437Z,4.82
2022-11-09T03:43:43.337Z,4.77
2022-11-09T03:46:46.176Z,4.83
2022-11-09T03:49:48.934Z,4.90
2022-11-09T03:52:51.577Z,4.87
2022-11-09T03:55:54.285Z,4.87
2022-11-09T03:58:57.069Z,4.88
2022-11-09T04:01:59.933Z,4.78
2022-11-09T04:05:02.825Z,4.50
2022-11-09T04:08:05.712Z,4.56
2022-11-09T04:11:08.378Z,4.59
2022-11-09T04:14:11.065Z,4.45
2022-11-09T04:17:13.736Z,4.38
2022-11-09T04:20:17.008Z,4.27
2022-11-09T04:23:20.032Z,4.29
2022-11-09T04:26:22.865Z,4.35
2022-11-09T04:29:25.651Z,4.31
2022-11-09T04:32:28.332Z,4.19
2022-11-09T04:35:33.453Z,4.36
2022-11-09T04:38:36.673Z,4.40
2022-11-09T04:41:39.388Z,4.43
2022-11-09T04:44:48.733Z,4.52
2022-11-09T04:47:51.405Z,4.68
2022-11-09T04:51:00.520Z,4.72
2022-11-09T04:54:03.224Z,4.78
2022-11-09T04:57:05.983Z,4.68
2022-11-09T05:00:09.447Z,4.78
2022-11-09T05:03:12.273Z,4.53
2022-11-09T05:06:33.410Z,4.69
2022-11-09T05:09:36.321Z,4.56
2022-11-09T05:12:42.223Z,4.65
2022-11-09T05:15:47.616Z,4.58
2022-11-09T05:18:51.038Z,4.72
2022-11-09T05:21:53.678Z,4.75
2022-11-09T05:24:56.455Z,4.79
2022-11-09T05:27:59.378Z,4.91
2022-11-09T05:31:02.230Z,4.93
2022-11-09T05:34:06.619Z,4.91
2022-11-09T05:37:09.309Z,4.89
2022-11-09T05:40:12.151Z,4.78
2022-11-09T05:43:15.011Z,4.88
2022-11-09T05:46:19.045Z,4.86
2022-11-09T05:49:21.844Z,4.75
2022-11-09T05:52:24.546Z,4.87
2022-11-09T05:55:28.070Z,4.94
2022-11-09T05:58:33.202Z,4.99
2022-11-09T06:01:36.051Z,5.08
2022-11-09T06:04:38.845Z,5.21
2022-11-09T06:07:41.576Z,5.30
2022-11-09T06:10:44.425Z,5.14
2022-11-09T06:13:47.111Z,5.08
2022-11-09T06:16:49.880Z,5.06
2022-11-09T06:19:52.897Z,5.18
2022-11-09T06:23:02.440Z,5.13
2022-11-09T06:26:10.016Z,5.14
2022-11-09T06:29:12.970Z,5.22
2022-11-09T06:32:15.670Z,5.35
2022-11-09T06:35:18.444Z,5.40
2022-11-09T06:38:21.347Z,5.60
2022-11-09T06:41:24.019Z,5.42
2022-11-09T06:44:26.812Z,5.54
2022-11-09T06:47:29.818Z,5.61
2022-11-09T06:50:33.922Z,5.84
2022-11-09T06:53:38.047Z,5.84
2022-11-09T06:56:40.861Z,6.01
2022-11-09T06:59:44.836Z,5.99
2022-11-09T07:02:49.841Z,6.25
2022-11-09T07:05:53.484Z,6.34
2022-11-09T07:08:57.302Z,6.29
2022-11-09T07:12:00.244Z,6.52
2022-11-09T07:15:04.061Z,6.12
2022-11-09T07:18:10.423Z,6.03
2022-11-09T07:21:14.537Z,6.38
2022-11-09T07:24:17.488Z,6.58
2022-11-09T07:27:24.857Z,6.84
2022-11-09T07:30:30.232Z,6.96
2022-11-09T07:33:33.923Z,7.17
2022-11-09T07:36:39.362Z,6.99
2022-11-09T07:39:42.323Z,7.21
2022-11-09T07:42:45.380Z,7.15
2022-11-09T07:45:48.360Z,7.15
2022-11-09T07:48:51.209Z,7.37
2022-11-09T07:51:54.736Z,7.50
2022-11-09T07:54:57.762Z,7.84
2022-11-09T07:58:03.967Z,7.79
2022-11-09T08:01:08.662Z,7.85
2022-11-09T08:04:11.550Z,7.90
2022-11-09T08:07:14.772Z,8.02
2022-11-09T08:10:17.585Z,8.23
2022-11-09T08:13:20.863Z,8.33
2022-11-09T08:16:24.317Z,8.41
2022-11-09T08:19:27.027Z,8.37
2022-11-09T08:22:29.773Z,8.32
2022-11-09T08:25:34.488Z,8.07
2022-11-09T08:28:37.796Z,8.39
2022-11-09T08:31:40.656Z,8.47
2022-11-09T08:34:47.831Z,8.47
2022-11-09T08:37:52.436Z,8.45
2022-11-09T08:40:59.122Z,8.38
2022-11-09T08:44:04.079Z,7.92
2022-11-09T08:47:06.853Z,7.98
2022-11-09T08:50:11.013Z,8.36
2022-11-09T08:53:13.674Z,8.32
2022-11-09T08:56:18.584Z,8.47
2022-11-09T08:59:21.379Z,8.83
2022-11-09T09:02:24.661Z,8.64
2022-11-09T09:05:27.409Z,8.71
2022-11-09T09:08:30.218Z,8.86
2022-11-09T09:11:34.390Z,8.83
2022-11-09T09:14:37.827Z,8.60
2022-11-09T09:17:41.558Z,9.23
2022-11-09T09:20:45.445Z,9.08
2022-11-09T09:23:49.542Z,9.08
2022-11-09T09:26:52.267Z,9.35
2022-11-09T09:29:55.141Z,9.64
2022-11-09T09:33:00.442Z,9.79
2022-11-09T09:36:03.589Z,10.02
2022-11-09T09:39:06.391Z,10.15
2022-11-09T09:42:17.500Z,10.32
2022-11-09T09:45:33.972Z,10.45
2022-11-09T09:48:40.150Z,10.65
2022-11-09T09:51:53.955Z,10.71
2022-11-09T09:55:10.320Z,10.44
2022-11-09T09:58:19.542Z,10.77
2022-11-09T10:01:28.406Z,10.64
2022-11-09T10:04:41.855Z,10.80
2022-11-09T10:07:53.888Z,11.39
2022-11-09T10:11:08.548Z,12.43
2022-11-09T10:14:26.440Z,12.70
2022-11-09T10:17:40.198Z,12.09
2022-11-09T10:21:04.950Z,11.99
2022-11-09T10:24:23.032Z,11.96
2022-11-09T10:27:35.638Z,11.75
2022-11-09T10:30:40.026Z,11.61
2022-11-09T10:33:58.235Z,11.51
2022-11-09T10:37:12.912Z,11.37
2022-11-09T10:40:37.592Z,11.22
2022-11-09T10:43:59.077Z,11.05
2022-11-09T10:47:26.389Z,12.02
2022-11-09T10:50:54.481Z,12.46
2022-11-09T10:54:32.430Z,12.47
2022-11-09T10:58:13.040Z,12.57
2022-11-09T11:01:39.560Z,11.68
2022-11-09T11:05:07.207Z,12.34
2022-11-09T11:08:38.656Z,13.26
2022-11-09T11:12:17.640Z,15.80
2022-11-09T11:15:41.944Z,14.65
2022-11-09T11:19:06.346Z,13.48
2022-11-09T11:22:29.685Z,13.79
2022-11-09T11:25:56.208Z,13.29
2022-11-09T11:29:35.890Z,15.40
2022-11-09T11:32:57.856Z,17.73
2022-11-09T11:36:28.075Z,18.73
2022-11-09T11:40:19.529Z,18.43
2022-11-09T11:43:56.073Z,18.66
2022-11-09T11:47:39.432Z,17.01
2022-11-09T11:51:18.253Z,15.02
2022-11-09T11:55:14.727Z,14.27
2022-11-09T11:59:05.866Z,14.39
2022-11-09T12:02:51.486Z,13.48
2022-11-09T12:06:15.718Z,13.66
2022-11-09T12:09:53.175Z,16.71
2022-11-09T12:13:30.145Z,18.48
2022-11-09T12:16:59.718Z,19.42
2022-11-09T12:20:34.457Z,18.05
2022-11-09T12:24:15.990Z,19.50
2022-11-09T12:27:43.521Z,17.96
2022-11-09T12:31:10.561Z,17.09
2022-11-09T12:34:48.212Z,17.21
2022-11-09T12:39:16.273Z,16.19
2022-11-09T12:43:05.234Z,16.18
2022-11-09T12:46:40.389Z,15.20
2022-11-09T12:50:02.220Z,14.52
2022-11-09T12:53:28.169Z,14.55
2022-11-09T12:57:03.684Z,14.94
2022-11-09T13:00:34.266Z,15.10
2022-11-09T13:03:58.677Z,15.14
2022-11-09T13:07:33.372Z,15.33
2022-11-09T13:11:19.141Z,15.16
2022-11-09T13:14:41.388Z,14.63
2022-11-09T13:18:06.061Z,14.83
2022-11-09T13:21:27.812Z,14.93
2022-11-09T13:24:49.000Z,14.06
2022-11-09T13:29:07.954Z,13.98
2022-11-09T13:36:42.424Z,12.81
2022-11-09T13:40:31.947Z,12.85
2022-11-09T13:44:27.083Z,13.26
2022-11-09T13:47:52.189Z,13.52
2022-11-09T13:51:20.208Z,13.58
2022-11-09T13:54:44.578Z,13.60
2022-11-09T13:58:30.685Z,13.65
2022-11-09T14:01:54.093Z,13.63
2022-11-09T14:05:34.811Z,13.46
2022-11-09T14:08:57.740Z,13.04
2022-11-09T14:12:43.368Z,13.07
2022-11-09T14:16:50.156Z,12.80
2022-11-09T14:20:42.276Z,12.59
2022-11-09T14:24:23.879Z,12.55
2022-11-09T14:27:58.587Z,12.67
2022-11-09T14:31:33.967Z,12.49
2022-11-09T14:35:37.434Z,12.41
2022-11-09T14:39:03.806Z,12.34
2022-11-09T14:42:25.366Z,12.32
2022-11-09T15:01:20.474Z,12.47
2022-11-09T15:05:02.703Z,12.52
2022-11-09T15:08:23.924Z,12.46
2022-11-09T15:11:46.783Z,12.48
2022-11-09T15:15:19.458Z,12.32
2022-11-09T15:18:46.201Z,12.23
2022-11-09T15:22:45.621Z,12.25
2022-11-09T15:26:25.925Z,12.37
2022-11-09T15:29:51.032Z,12.38
2022-11-09T15:33:20.303Z,12.26
2022-11-09T15:36:46.114Z,12.16
2022-11-09T15:40:19.362Z,12.16
2022-11-09T15:43:41.821Z,12.26
2022-11-09T15:47:04.061Z,12.38
2022-11-09T15:50:27.385Z,12.45
2022-11-09T15:53:48.920Z,12.46
2022-11-09T15:57:16.348Z,12.45
2022-11-09T16:00:37.760Z,12.43
2022-11-09T16:03:59.028Z,12.40
2022-11-09T16:07:20.631Z,12.43
2022-11-09T16:10:44.487Z,12.38
2022-11-09T16:14:06.007Z,12.43
2022-11-09T16:17:29.335Z,12.26
2022-11-09T16:20:50.763Z,12.34
2022-11-09T16:24:12.014Z,12.18
2022-11-09T16:27:49.744Z,12.10
2022-11-09T16:31:13.168Z,12.27
2022-11-09T16:34:34.284Z,12.21
2022-11-09T16:37:57.584Z,12.23
2022-11-09T16:41:19.946Z,12.21
2022-11-09T16:44:43.106Z,12.24
2022-11-09T16:48:11.391Z,12.28
2022-11-09T16:51:33.024Z,12.35
2022-11-09T16:54:54.701Z,12.31
2022-11-09T16:58:16.026Z,12.27
2022-11-09T17:01:37.682Z,12.31
2022-11-09T17:04:58.790Z,12.31
2022-11-09T17:08:20.883Z,12.19
2022-11-09T17:11:42.112Z,12.14
2022-11-09T17:15:03.597Z,12.12
2022-11-09T17:18:25.130Z,12.21
2022-11-09T17:21:46.946Z,12.25
2022-11-09T17:25:09.421Z,12.23
2022-11-09T17:28:31.651Z,12.26
2022-11-09T17:31:53.497Z,12.21
2022-11-09T17:35:14.679Z,12.25
2022-11-09T17:38:36.076Z,12.26
2022-11-09T17:41:57.377Z,12.25
2022-11-09T17:45:18.789Z,12.25
2022-11-09T17:48:42.171Z,12.29
2022-11-09T17:52:03.569Z,12.28
2022-11-09T17:55:25.178Z,12.29
2022-11-09T17:58:47.404Z,12.22
2022-11-09T18:02:10.698Z,12.12
2022-11-09T18:05:32.066Z,12.18
2022-11-09T18:09:19.280Z,12.26
2022-11-09T18:12:35.031Z,12.28
2022-11-09T18:15:56.244Z,12.32
2022-11-09T18:19:17.743Z,12.21
2022-11-09T18:22:39.099Z,12.26
2022-11-09T18:26:00.773Z,12.26
2022-11-09T18:29:22.270Z,12.45
2022-11-09T18:32:43.954Z,12.48
2022-11-09T18:36:09.376Z,12.40
2022-11-09T18:39:31.223Z,12.30
2022-11-09T18:43:03.734Z,12.33
2022-11-09T18:46:27.046Z,12.32
2022-11-09T18:49:49.743Z,12.24
2022-11-09T18:53:11.455Z,12.34
2022-11-09T18:56:32.841Z,12.30
2022-11-09T18:59:54.537Z,12.38
2022-11-09T19:03:16.488Z,12.34
2022-11-09T19:06:37.892Z,12.33
2022-11-09T19:09:59.595Z,12.24
2022-11-09T19:13:42.560Z,12.24
2022-11-09T19:17:37.394Z,12.20
2022-11-09T19:20:58.856Z,12.29
2022-11-09T19:24:22.397Z,12.22
2022-11-09T19:27:43.765Z,12.18
2022-11-09T19:31:05.310Z,12.19
2022-11-09T19:34:26.471Z,12.18
2022-11-09T19:37:47.989Z,12.16
2022-11-09T19:41:10.212Z,12.19
2022-11-09T19:44:32.059Z,12.13
2022-11-09T19:47:53.777Z,12.16
2022-11-09T19:51:17.910Z,12.05
2022-11-09T19:54:39.738Z,12.03
2022-11-09T19:58:01.620Z,12.06
2022-11-09T20:01:25.062Z,12.10
2022-11-09T20:04:47.657Z,12.15
2022-11-09T20:08:10.360Z,12.18
2022-11-09T20:11:50.544Z,12.09
2022-11-09T20:15:11.845Z,11.99
2022-11-09T20:18:37.960Z,11.98
2022-11-09T20:22:00.081Z,11.97
2022-11-09T20:25:21.895Z,12.18
2022-11-09T20:28:44.025Z,12.21
2022-11-09T20:32:05.412Z,12.21
2022-11-09T20:35:27.048Z,12.18
2022-11-09T20:38:48.813Z,12.07
2022-11-09T20:42:13.502Z,12.08
2022-11-09T20:45:36.473Z,12.15
2022-11-09T20:48:58.085Z,12.14
2022-11-09T20:52:20.031Z,12.14
2022-11-09T20:55:42.972Z,12.11
2022-11-09T20:59:05.531Z,12.14
2022-11-09T21:02:26.963Z,12.06
2022-11-09T21:05:52.406Z,12.01
2022-11-09T21:09:15.970Z,11.99
2022-11-09T21:12:37.459Z,11.97
2022-11-09T21:16:13.885Z,11.88
2022-11-09T21:19:35.649Z,11.86
2022-11-09T21:23:13.704Z,11.85
2022-11-09T21:26:54.305Z,11.97
2022-11-09T21:30:15.834Z,11.95
2022-11-09T21:33:37.583Z,11.97
2022-11-09T21:36:59.171Z,11.99
2022-11-09T21:40:20.698Z,11.83
2022-11-09T21:43:41.620Z,11.84
2022-11-09T21:47:03.397Z,11.82
2022-11-09T21:50:24.492Z,11.86
2022-11-09T21:53:46.694Z,12.00
2022-11-09T21:57:07.946Z,12.01
2022-11-09T22:00:29.028Z,12.02
2022-11-09T22:03:50.723Z,11.98
2022-11-09T22:07:11.834Z,12.02
2022-11-09T22:10:33.411Z,11.96
2022-11-09T22:14:12.628Z,11.98
2022-11-09T22:17:34.011Z,11.88
2022-11-09T22:20:56.862Z,11.79
2022-11-09T22:24:17.969Z,11.81
2022-11-09T22:27:39.132Z,11.94
2022-11-09T22:31:07.744Z,11.84
2022-11-09T22:34:29.139Z,11.75
2022-11-09T22:37:50.294Z,11.70
2022-11-09T22:41:14.354Z,11.84
2022-11-09T22:44:35.843Z,11.90
2022-11-09T22:47:56.985Z,11.89
2022-11-09T22:51:19.442Z,11.88
2022-11-09T22:54:40.402Z,11.91
2022-11-09T22:58:01.640Z,12.00
2022-11-09T23:01:23.008Z,11.91
2022-11-09T23:04:44.104Z,12.01
2022-11-09T23:08:05.871Z,11.90
2022-11-09T23:11:26.859Z,11.92
2022-11-09T23:15:05.871Z,11.93
2022-11-09T23:18:46.168Z,11.82
2022-11-09T23:22:07.600Z,11.74
2022-11-09T23:25:47.869Z,11.77
2022-11-09T23:29:09.018Z,11.78
2022-11-09T23:32:30.359Z,11.74
2022-11-09T23:35:51.238Z,11.75
2022-11-09T23:39:12.215Z,11.78
2022-11-09T23:42:33.708Z,11.81
2022-11-09T23:45:55.544Z,11.82
2022-11-09T23:49:16.852Z,11.90
2022-11-09T23:52:37.952Z,11.96
2022-11-09T23:56:05.999Z,11.92
2022-11-09T23:59:27.241Z,11.82
